createdAt,value
2018-03-26T00:02:02.876Z,3.6
2018-03-26T00:07:03.170Z,3.5
2018-03-26T00:12:03.292Z,3.6
2018-03-26T00:17:03.372Z,3.5
2018-03-26T00:22:03.295Z,3.5
2018-03-26T00:27:03.311Z,3.4
2018-03-26T00:32:03.432Z,3.3
2018-03-26T00:37:03.626Z,3.3
2018-03-26T00:42:02.653Z,3.2
2018-03-26T00:47:02.812Z,3.1
2018-03-26T00:52:02.847Z,3.0
2018-03-26T00:57:03.044Z,3.0
2018-03-26T01:02:03.122Z,3.0
2018-03-26T01:07:03.316Z,2.9
2018-03-26T01:12:03.494Z,2.9
2018-03-26T01:17:03.689Z,2.9
2018-03-26T01:22:03.284Z,2.9
2018-03-26T01:27:03.432Z,2.9
2018-03-26T01:32:03.474Z,2.8
2018-03-26T01:37:02.885Z,2.8
2018-03-26T01:42:02.878Z,2.8
2018-03-26T01:47:03.085Z,2.8
2018-03-26T01:52:02.760Z,2.7
2018-03-26T01:57:02.734Z,2.5
2018-03-26T02:02:02.859Z,2.5
2018-03-26T02:07:03.042Z,2.5
2018-03-26T02:12:03.176Z,2.4
2018-03-26T02:17:03.171Z,2.4
2018-03-26T02:22:03.342Z,2.3
2018-03-26T02:27:03.430Z,2.2
2018-03-26T02:32:03.487Z,2.2
2018-03-26T02:37:03.488Z,2.1
2018-03-26T02:42:03.491Z,2.0
2018-03-26T02:47:03.552Z,2.2
2018-03-26T02:52:02.717Z,2.2
2018-03-26T02:57:02.895Z,2.1
2018-03-26T03:02:02.982Z,2.2
2018-03-26T03:07:03.192Z,2.1
2018-03-26T03:12:03.453Z,2.1
2018-03-26T03:17:03.614Z,2.1
2018-03-26T03:22:02.721Z,2.2
2018-03-26T03:27:02.878Z,2.1
2018-03-26T03:32:03.009Z,2.2
2018-03-26T03:37:03.123Z,2.3
2018-03-26T03:42:03.103Z,2.3
2018-03-26T03:47:03.269Z,2.4
2018-03-26T03:52:03.354Z,2.4
2018-03-26T03:57:03.529Z,2.5
2018-03-26T04:02:03.578Z,2.5
2018-03-26T04:07:02.795Z,2.4
2018-03-26T04:12:03.041Z,2.5
2018-03-26T04:17:03.106Z,2.6
2018-03-26T04:22:03.310Z,2.5
2018-03-26T04:27:03.289Z,2.6
2018-03-26T04:32:03.832Z,2.6
2018-03-26T04:37:03.494Z,2.5
2018-03-26T04:42:03.449Z,2.7
2018-03-26T04:47:05.053Z,2.7
2018-03-26T04:52:02.766Z,2.8
2018-03-26T04:57:02.982Z,2.7
2018-03-26T05:02:13.785Z,2.9
2018-03-26T05:07:03.578Z,2.9
2018-03-26T05:12:02.964Z,2.9
2018-03-26T05:17:13.783Z,2.9
2018-03-26T05:22:03.127Z,3.1
2018-03-26T05:27:03.628Z,3.2
2018-03-26T05:32:02.944Z,3.2
2018-03-26T05:37:03.246Z,3.3
2018-03-26T05:42:03.491Z,3.4
2018-03-26T05:47:13.081Z,3.6
2018-03-26T05:52:02.961Z,3.5
2018-03-26T05:57:03.308Z,3.6
2018-03-26T06:02:13.859Z,3.8
2018-03-26T06:07:02.928Z,3.7
2018-03-26T06:12:03.195Z,3.8
2018-03-26T06:17:13.976Z,3.8
2018-03-26T06:22:02.625Z,3.8
2018-03-26T06:27:02.780Z,3.8
2018-03-26T06:32:13.329Z,4.1
2018-03-26T06:37:03.189Z,4.0
2018-03-26T06:42:03.291Z,4.2
2018-03-26T06:47:13.893Z,4.4
2018-03-26T06:52:02.576Z,4.4
2018-03-26T06:57:02.816Z,4.8
2018-03-26T07:02:13.652Z,5.0
2018-03-26T07:07:03.541Z,5.0
2018-03-26T07:12:02.765Z,5.2
2018-03-26T07:17:13.472Z,5.4
2018-03-26T07:22:03.264Z,5.7
2018-03-26T07:27:03.366Z,5.9
2018-03-26T07:32:13.398Z,6.4
2018-03-26T07:37:03.649Z,6.4
2018-03-26T07:42:03.220Z,6.7
2018-03-26T07:47:11.339Z,7.0
2018-03-26T07:52:03.582Z,7.5
2018-03-26T07:57:02.758Z,7.8
2018-03-26T08:02:12.760Z,8.0
2018-03-26T08:07:03.249Z,8.3
2018-03-26T08:12:03.544Z,8.2
2018-03-26T08:17:14.005Z,8.6
2018-03-26T08:22:02.934Z,9.1
2018-03-26T08:27:03.117Z,9.3
2018-03-26T08:32:13.579Z,9.2
2018-03-26T08:37:03.465Z,9.4
2018-03-26T08:42:03.554Z,9.8
2018-03-26T08:47:13.341Z,9.7
2018-03-26T08:52:02.789Z,10.3
2018-03-26T08:57:03.033Z,10.3
2018-03-26T09:02:13.558Z,10.8
2018-03-26T09:07:03.528Z,10.9
2018-03-26T09:12:02.847Z,10.9
2018-03-26T09:17:12.527Z,11.1
2018-03-26T09:22:03.328Z,11.3
2018-03-26T09:27:03.467Z,11.5
2018-03-26T09:32:12.663Z,11.5
2018-03-26T09:37:03.456Z,11.8
2018-03-26T09:42:03.606Z,12.0
2018-03-26T09:47:13.255Z,12.1
2018-03-26T09:52:03.011Z,12.4
2018-03-26T09:57:03.234Z,12.5
2018-03-26T10:02:18.205Z,12.5
2018-03-26T10:07:02.699Z,12.9
2018-03-26T10:12:02.950Z,12.9
2018-03-26T10:17:09.309Z,13.1
2018-03-26T10:22:03.430Z,13.3
2018-03-26T10:27:03.625Z,13.5
2018-03-26T10:32:13.099Z,13.8
2018-03-26T10:37:02.938Z,13.7
2018-03-26T10:42:03.095Z,14.2
2018-03-26T10:47:13.508Z,14.2
2018-03-26T10:52:03.463Z,14.8
2018-03-26T10:57:03.632Z,14.7
2018-03-26T11:02:13.082Z,14.5
2018-03-26T11:07:03.276Z,14.4
2018-03-26T11:12:03.525Z,14.4
2018-03-26T11:17:13.427Z,13.9
2018-03-26T11:22:03.536Z,14.0
2018-03-26T11:27:03.604Z,14.0
2018-03-26T11:32:13.080Z,14.0
2018-03-26T11:37:02.988Z,13.9
2018-03-26T11:42:03.104Z,13.9
2018-03-26T11:47:11.728Z,13.6
2018-03-26T11:52:03.453Z,13.6
2018-03-26T11:57:02.646Z,13.4
2018-03-26T12:02:13.000Z,12.9
2018-03-26T12:07:03.194Z,12.8
2018-03-26T12:12:03.424Z,12.7
2018-03-26T12:17:13.820Z,12.7
2018-03-26T12:22:02.728Z,12.6
2018-03-26T12:27:02.915Z,12.6
2018-03-26T12:32:12.636Z,12.4
2018-03-26T12:37:03.160Z,12.3
2018-03-26T12:42:03.285Z,12.2
2018-03-26T12:47:13.342Z,12.0
2018-03-26T12:52:02.539Z,11.9
2018-03-26T12:57:02.698Z,11.9
2018-03-26T13:02:13.387Z,11.8
2018-03-26T13:07:03.360Z,11.9
2018-03-26T13:12:03.530Z,11.9
2018-03-26T13:17:19.465Z,11.8
2018-03-26T13:22:02.919Z,11.7
2018-03-26T13:27:02.995Z,11.7
2018-03-26T13:32:13.538Z,11.7
2018-03-26T13:37:03.306Z,11.8
2018-03-26T13:42:03.313Z,11.8
2018-03-26T13:47:13.853Z,11.8
2018-03-26T13:52:02.689Z,11.9
2018-03-26T13:57:02.886Z,12.0
2018-03-26T14:02:13.525Z,12.0
2018-03-26T14:07:03.399Z,12.0
2018-03-26T14:12:03.678Z,11.8
2018-03-26T14:17:13.369Z,11.8
2018-03-26T14:22:03.143Z,11.7
2018-03-26T14:27:03.369Z,11.6
2018-03-26T14:32:13.005Z,11.6
2018-03-26T14:37:03.589Z,11.5
2018-03-26T14:42:02.796Z,11.3
2018-03-26T14:47:12.547Z,11.3
2018-03-26T14:52:03.163Z,11.2
2018-03-26T14:57:03.267Z,11.3
2018-03-26T15:02:11.496Z,11.1
2018-03-26T15:07:02.781Z,11.2
2018-03-26T15:12:03.008Z,11.2
2018-03-26T15:17:12.746Z,11.2
2018-03-26T15:22:03.415Z,11.2
2018-03-26T15:27:03.535Z,11.1
2018-03-26T15:32:14.034Z,11.1
2018-03-26T15:37:02.828Z,11.0
2018-03-26T15:42:02.965Z,10.9
2018-03-26T15:47:12.641Z,11.1
2018-03-26T15:52:03.359Z,11.4
2018-03-26T15:57:03.435Z,11.4
2018-03-26T16:02:17.494Z,11.7
2018-03-26T16:07:02.936Z,13.8
2018-03-26T16:12:03.268Z,13.8
2018-03-26T16:17:14.043Z,16.4
2018-03-26T16:22:02.750Z,17.5
2018-03-26T16:27:02.913Z,16.2
2018-03-26T16:32:10.760Z,14.2
2018-03-26T16:37:03.244Z,13.4
2018-03-26T16:42:03.395Z,13.0
2018-03-26T16:47:12.141Z,12.8
2018-03-26T16:52:02.744Z,12.8
2018-03-26T16:57:02.947Z,12.5
2018-03-26T17:02:13.758Z,12.0
2018-03-26T17:07:03.495Z,11.7
2018-03-26T17:12:02.862Z,11.5
2018-03-26T17:17:06.055Z,11.4
2018-03-26T17:22:03.309Z,11.2
2018-03-26T17:27:03.444Z,11.0
2018-03-26T17:32:14.102Z,11.0
2018-03-26T17:37:03.289Z,10.9
2018-03-26T17:42:03.510Z,10.7
2018-03-26T17:47:13.866Z,10.5
2018-03-26T17:52:02.923Z,10.5
2018-03-26T17:57:02.775Z,10.3
2018-03-26T18:02:13.271Z,10.2
2018-03-26T18:07:02.861Z,10.2
2018-03-26T18:12:03.183Z,10.0
2018-03-26T18:17:07.153Z,9.9
2018-03-26T18:22:03.596Z,9.8
2018-03-26T18:27:02.803Z,9.8
2018-03-26T18:32:03.276Z,9.7
2018-03-26T18:37:03.173Z,9.4
2018-03-26T18:42:03.239Z,9.4
2018-03-26T18:47:09.289Z,9.4
2018-03-26T18:52:03.453Z,9.4
2018-03-26T18:57:03.719Z,9.3
2018-03-26T19:02:03.307Z,9.4
2018-03-26T19:07:02.995Z,9.2
2018-03-26T19:12:03.259Z,9.1
2018-03-26T19:17:04.799Z,9.1
2018-03-26T19:22:03.483Z,9.0
2018-03-26T19:27:03.628Z,9.0
2018-03-26T19:32:02.764Z,9.0
2018-03-26T19:37:02.956Z,9.0
2018-03-26T19:42:03.024Z,9.0
2018-03-26T19:47:03.252Z,9.0
2018-03-26T19:52:03.187Z,8.8
2018-03-26T19:57:03.310Z,8.8
2018-03-26T20:02:03.564Z,8.5
2018-03-26T20:07:03.647Z,8.4
2018-03-26T20:12:02.996Z,8.4
2018-03-26T20:17:03.356Z,8.3
2018-03-26T20:22:03.265Z,8.3
2018-03-26T20:27:03.342Z,8.2
2018-03-26T20:32:03.435Z,8.3
2018-03-26T20:37:03.571Z,8.5
2018-03-26T20:42:03.584Z,8.5
2018-03-26T20:47:02.761Z,8.4
2018-03-26T20:52:02.925Z,8.4
2018-03-26T20:57:03.101Z,8.3
2018-03-26T21:02:03.204Z,8.3
2018-03-26T21:07:03.402Z,8.1
2018-03-26T21:12:03.687Z,8.1
2018-03-26T21:17:03.050Z,8.0
2018-03-26T21:22:03.112Z,8.1
2018-03-26T21:27:03.169Z,8.0
2018-03-26T21:32:03.302Z,7.7
2018-03-26T21:37:03.383Z,7.6
2018-03-26T21:42:03.340Z,7.6
2018-03-26T21:47:03.520Z,7.5
2018-03-26T21:52:02.735Z,7.6
2018-03-26T21:57:02.813Z,7.5
2018-03-26T22:02:03.020Z,7.1
2018-03-26T22:07:03.217Z,7.1
2018-03-26T22:12:03.263Z,7.0
2018-03-26T22:22:03.824Z,6.7
2018-03-26T22:27:03.512Z,6.6
2018-03-26T22:32:03.592Z,6.5
2018-03-26T22:37:03.387Z,6.5
2018-03-26T22:42:03.454Z,6.5
2018-03-26T22:47:03.522Z,6.6
2018-03-26T22:52:03.406Z,6.5
2018-03-26T22:57:03.082Z,6.5
2018-03-26T23:02:03.276Z,6.1
2018-03-26T23:07:03.152Z,6.1
2018-03-26T23:12:03.172Z,6.1
2018-03-26T23:17:03.057Z,6.0
2018-03-26T23:22:02.839Z,5.9
2018-03-26T23:27:03.632Z,5.8
2018-03-26T23:32:03.696Z,5.8
2018-03-26T23:37:03.139Z,5.7
2018-03-26T23:42:03.014Z,5.8
2018-03-26T23:47:02.761Z,5.8
2018-03-26T23:52:03.287Z,5.8
2018-03-26T23:57:03.213Z,5.8
